Time;durP1;ratioP1;P1;durP2;ratioP2;P2;SDS_P1;SDS_P2;PMS_P1;PMS_P2;Temp;Humidity;BMP_temperature;BMP_pressure;BME280_temperature;BME280_humidity;BME280_pressure;Samples;Min_cycle;Max_cycle;Signal;HPM_P1;HPM_P2
2023/03/02 00:01:48;;;;;;;30.02;12.05;;;4.10;99.90;;;;;;4952558;29;20051;-80
2023/03/02 00:04:34;;;;;;;29.65;12.00;;;4.00;99.90;;;;;;4951878;29;20059;-79
2023/03/02 00:07:04;;;;;;;32.88;11.65;;;4.00;99.90;;;;;;4952032;28;20047;-80
2023/03/02 00:09:30;;;;;;;31.80;11.55;;;4.00;99.90;;;;;;4951410;29;20058;-80
2023/03/02 00:11:56;;;;;;;29.40;11.75;;;4.00;99.90;;;;;;4952399;29;20054;-80
2023/03/02 00:14:22;;;;;;;29.13;12.05;;;3.90;99.90;;;;;;4936116;29;20055;-80
2023/03/02 00:16:47;;;;;;;30.40;12.73;;;3.90;99.90;;;;;;4952382;29;20082;-80
2023/03/02 00:19:13;;;;;;;32.53;12.60;;;4.00;99.90;;;;;;4951404;29;20381;-80
2023/03/02 00:21:40;;;;;;;34.60;14.00;;;3.90;99.90;;;;;;4953321;29;20058;-80
2023/03/02 00:24:06;;;;;;;33.13;12.35;;;3.80;99.90;;;;;;4951079;29;20052;-81
2023/03/02 00:26:33;;;;;;;40.03;13.38;;;3.80;99.90;;;;;;4952076;29;20079;-81
2023/03/02 00:28:59;;;;;;;41.17;14.55;;;4.00;99.90;;;;;;4951236;28;20062;-80
2023/03/02 00:31:25;;;;;;;38.13;13.63;;;3.70;99.90;;;;;;4950460;29;20047;-80
2023/03/02 00:33:53;;;;;;;33.10;13.77;;;3.80;99.90;;;;;;4951348;29;20055;-80
2023/03/02 00:36:20;;;;;;;37.28;13.90;;;3.80;99.90;;;;;;4951547;29;20051;-80
2023/03/02 00:38:46;;;;;;;34.97;13.38;;;3.90;99.90;;;;;;4951040;29;20047;-80
2023/03/02 00:41:15;;;;;;;38.20;14.30;;;3.80;99.90;;;;;;4951569;29;20061;-80
2023/03/02 00:43:41;;;;;;;41.08;14.18;;;3.70;99.90;;;;;;4952137;29;20047;-80
2023/03/02 00:46:11;;;;;;;35.60;13.48;;;3.70;99.90;;;;;;4935677;29;20047;-80
2023/03/02 00:48:37;;;;;;;38.92;13.77;;;3.70;99.90;;;;;;4951676;29;20098;-80
2023/03/02 00:51:04;;;;;;;41.65;14.02;;;3.70;99.90;;;;;;4951187;29;20118;-80
2023/03/02 00:53:30;;;;;;;35.58;14.23;;;3.70;99.90;;;;;;4951364;28;20062;-80
2023/03/02 00:55:56;;;;;;;40.72;14.70;;;3.60;99.90;;;;;;4955474;29;20051;-80
2023/03/02 00:58:22;;;;;;;40.20;14.63;;;3.90;99.90;;;;;;4954728;29;20106;-80
2023/03/02 01:00:48;;;;;;;35.97;13.75;;;3.70;99.90;;;;;;4955321;29;20055;-80
2023/03/02 01:03:13;;;;;;;41.92;14.77;;;3.80;99.90;;;;;;4954634;29;20145;-80
2023/03/02 01:05:39;;;;;;;34.28;13.07;;;3.70;99.90;;;;;;4955096;29;20477;-79
2023/03/02 01:08:05;;;;;;;36.53;13.95;;;3.60;99.90;;;;;;4954467;29;20054;-80
2023/03/02 01:10:31;;;;;;;38.15;14.20;;;3.60;99.90;;;;;;4954529;29;20074;-80
2023/03/02 01:12:57;;;;;;;35.33;13.93;;;3.90;99.90;;;;;;4954729;29;20054;-80
2023/03/02 01:15:23;;;;;;;38.92;14.57;;;3.50;99.90;;;;;;4955662;29;20051;-80
2023/03/02 01:17:48;;;;;;;43.25;14.63;;;3.40;99.90;;;;;;4954877;29;20616;-80
2023/03/02 01:20:15;;;;;;;34.30;12.70;;;3.40;99.90;;;;;;4954477;29;20047;-79
2023/03/02 01:22:42;;;;;;;45.78;14.80;;;3.40;99.90;;;;;;4954520;29;20362;-80
2023/03/02 01:25:08;;;;;;;42.30;15.65;;;3.50;99.90;;;;;;4955204;29;20055;-80
2023/03/02 01:27:34;;;;;;;38.20;14.15;;;3.40;99.90;;;;;;4938643;29;20055;-80
2023/03/02 01:30:00;;;;;;;38.55;13.27;;;3.50;99.90;;;;;;4954519;29;20182;-80
2023/03/02 01:32:26;;;;;;;37.47;13.77;;;3.40;99.90;;;;;;4955271;28;20054;-80
2023/03/02 01:34:51;;;;;;;35.38;13.35;;;3.40;99.90;;;;;;4938807;29;20512;-80
2023/03/02 01:37:17;;;;;;;35.42;13.15;;;3.40;99.90;;;;;;4953090;29;20066;-80
2023/03/02 01:39:43;;;;;;;37.72;13.57;;;3.40;99.90;;;;;;4953579;29;20072;-80
2023/03/02 01:42:08;;;;;;;34.05;13.82;;;3.40;99.90;;;;;;4955585;29;20055;-81
2023/03/02 01:44:47;;;;;;;35.90;14.30;;;3.50;99.90;;;;;;4953629;29;20043;-80
2023/03/02 01:47:42;;;;;;;36.40;12.93;;;3.30;99.90;;;;;;4953741;29;20055;-81
2023/03/02 01:50:18;;;;;;;34.25;12.48;;;3.30;99.90;;;;;;4946024;29;20055;-80
2023/03/02 01:52:43;;;;;;;34.55;12.85;;;3.50;99.90;;;;;;4953349;29;20149;-79
2023/03/02 01:55:12;;;;;;;42.78;13.20;;;3.80;99.90;;;;;;4954045;29;20094;-80
2023/03/02 01:57:45;;;;;;;30.00;12.00;;;3.30;99.90;;;;;;4954144;29;20047;-80
2023/03/02 02:00:20;;;;;;;33.03;11.98;;;3.20;99.90;;;;;;4953872;29;20481;-80
2023/03/02 02:02:48;;;;;;;29.23;11.85;;;3.10;99.90;;;;;;4954310;29;20054;-80
2023/03/02 02:05:20;;;;;;;32.03;11.90;;;3.10;99.90;;;;;;4952954;28;20048;-81
2023/03/02 02:07:46;;;;;;;35.45;12.65;;;3.10;99.90;;;;;;4953725;29;20055;-80
2023/03/02 02:10:13;;;;;;;32.88;12.98;;;3.10;99.90;;;;;;4953703;29;20047;-80
2023/03/02 02:12:39;;;;;;;35.30;12.75;;;3.20;99.90;;;;;;4954097;29;20066;-80
2023/03/02 02:15:06;;;;;;;35.35;12.45;;;3.10;99.90;;;;;;4955057;29;20441;-80
2023/03/02 02:17:32;;;;;;;32.50;12.05;;;3.10;99.90;;;;;;4953241;29;20090;-80
2023/03/02 02:20:11;;;;;;;35.03;13.45;;;3.30;99.90;;;;;;4953745;29;20079;-81
2023/03/02 02:22:57;;;;;;;34.38;13.35;;;3.10;99.90;;;;;;4953223;29;20083;-80
2023/03/02 02:25:44;;;;;;;31.45;12.73;;;3.10;99.90;;;;;;4952594;28;20063;-80
2023/03/02 02:28:23;;;;;;;31.38;11.18;;;3.10;99.90;;;;;;4953902;29;20562;-80
2023/03/02 02:31:04;;;;;;;31.40;11.55;;;3.00;99.90;;;;;;4953910;29;20067;-81
2023/03/02 02:33:31;;;;;;;33.83;12.85;;;3.10;99.90;;;;;;4953131;29;20059;-80
2023/03/02 02:36:05;;;;;;;33.83;12.88;;;3.00;99.90;;;;;;4953755;29;20051;-80
2023/03/02 02:38:33;;;;;;;29.50;10.18;;;2.90;99.90;;;;;;4952456;29;20086;-80
2023/03/02 02:41:03;;;;;;;32.08;12.52;;;2.90;99.90;;;;;;4954394;28;20047;-81
2023/03/02 02:43:31;;;;;;;34.72;12.82;;;2.90;99.90;;;;;;4953160;29;20061;-80
2023/03/02 02:45:57;;;;;;;36.03;12.82;;;2.90;99.90;;;;;;4937508;29;20055;-81
2023/03/02 02:48:25;;;;;;;33.53;11.85;;;2.90;99.90;;;;;;4952937;29;20051;-80
2023/03/02 02:50:59;;;;;;;34.22;12.68;;;2.80;99.90;;;;;;4952697;29;20043;-80
2023/03/02 02:53:45;;;;;;;34.58;12.45;;;2.90;99.90;;;;;;4951915;29;20066;-81
2023/03/02 02:56:13;;;;;;;30.73;12.15;;;2.90;99.90;;;;;;4953534;29;20055;-81
2023/03/02 02:58:43;;;;;;;33.22;11.93;;;2.90;99.90;;;;;;4952971;29;20055;-81
2023/03/02 03:01:16;;;;;;;37.55;13.05;;;2.90;99.90;;;;;;4953231;29;20122;-80
2023/03/02 03:03:49;;;;;;;37.50;12.32;;;2.90;99.90;;;;;;4952550;29;20051;-78
2023/03/02 03:06:24;;;;;;;36.03;13.27;;;2.90;99.90;;;;;;4952910;29;20043;-78
2023/03/02 03:08:52;;;;;;;33.00;11.95;;;3.10;99.90;;;;;;4952220;29;20095;-78
2023/03/02 03:11:23;;;;;;;32.72;12.63;;;3.00;99.90;;;;;;4952934;29;20409;-81
2023/03/02 03:14:11;;;;;;;32.30;11.18;;;2.90;99.90;;;;;;4953135;29;20059;-80
2023/03/02 03:16:39;;;;;;;34.75;12.27;;;2.90;99.90;;;;;;4952541;28;20051;-80
2023/03/02 03:19:15;;;;;;;31.65;12.40;;;2.90;99.90;;;;;;4952749;29;20568;-80
2023/03/02 03:21:41;;;;;;;29.17;11.43;;;3.50;99.90;;;;;;4952630;29;20119;-80
2023/03/02 03:24:07;;;;;;;30.77;11.02;;;2.90;99.90;;;;;;4951987;29;20544;-80
2023/03/02 03:26:33;;;;;;;29.95;12.05;;;3.00;99.90;;;;;;4952280;29;20047;-80
2023/03/02 03:28:59;;;;;;;33.97;11.60;;;2.90;99.90;;;;;;4952821;29;20551;-80
2023/03/02 03:31:26;;;;;;;36.95;13.20;;;3.00;99.90;;;;;;4952268;29;20055;-81
2023/03/02 03:33:53;;;;;;;33.72;11.77;;;2.90;99.90;;;;;;4952610;29;20051;-80
2023/03/02 03:36:19;;;;;;;30.77;12.20;;;2.90;99.90;;;;;;4952561;29;20512;-81
2023/03/02 03:38:44;;;;;;;34.25;11.93;;;2.90;99.90;;;;;;4952462;29;20055;-80
2023/03/02 03:41:10;;;;;;;31.40;11.85;;;2.90;99.90;;;;;;4936821;29;20049;-80
2023/03/02 03:43:36;;;;;;;32.00;11.10;;;2.90;99.90;;;;;;4952013;29;20062;-80
2023/03/02 03:46:01;;;;;;;30.30;11.65;;;2.90;99.90;;;;;;4952576;29;20370;-80
2023/03/02 03:48:27;;;;;;;32.15;11.48;;;3.10;99.90;;;;;;4952129;29;20087;-81
2023/03/02 03:50:53;;;;;;;32.45;12.07;;;2.90;99.90;;;;;;4952525;29;20057;-80
2023/03/02 03:53:21;;;;;;;33.03;11.65;;;2.90;99.90;;;;;;4952853;28;20102;-80
2023/03/02 03:55:46;;;;;;;33.88;11.77;;;3.00;99.90;;;;;;4952320;29;20040;-80
2023/03/02 03:58:12;;;;;;;31.05;10.27;;;2.80;99.90;;;;;;4952176;29;20048;-81
2023/03/02 04:00:38;;;;;;;32.00;11.73;;;2.90;99.90;;;;;;4951728;29;20485;-80
2023/03/02 04:03:03;;;;;;;34.83;12.70;;;2.80;99.90;;;;;;4952414;29;20051;-81
2023/03/02 04:05:29;;;;;;;38.13;12.18;;;2.90;99.90;;;;;;4951597;29;20484;-80
2023/03/02 04:07:55;;;;;;;32.58;11.77;;;2.90;99.90;;;;;;4952042;29;20059;-80
2023/03/02 04:10:21;;;;;;;32.75;11.65;;;2.90;99.90;;;;;;4951853;29;20420;-80
2023/03/02 04:12:46;;;;;;;32.40;11.48;;;2.80;99.90;;;;;;4951905;29;20047;-80
2023/03/02 04:15:15;;;;;;;34.25;12.65;;;2.80;99.90;;;;;;4952503;29;20401;-80
2023/03/02 04:17:43;;;;;;;36.03;12.80;;;2.80;99.90;;;;;;4951940;29;20090;-80
2023/03/02 04:20:14;;;;;;;36.58;12.52;;;2.80;99.90;;;;;;4952342;29;20047;-80
2023/03/02 04:22:40;;;;;;;31.02;11.68;;;2.80;99.90;;;;;;4951445;29;20512;-80
2023/03/02 04:25:06;;;;;;;35.00;11.77;;;2.70;99.90;;;;;;4935917;29;20055;-80
2023/03/02 04:27:32;;;;;;;32.83;12.23;;;2.70;99.90;;;;;;4935979;28;20130;-80
2023/03/02 04:29:57;;;;;;;39.40;12.30;;;2.70;99.90;;;;;;4939545;29;20058;-80
2023/03/02 04:32:23;;;;;;;31.30;11.85;;;2.70;99.90;;;;;;4955834;29;20055;-80
2023/03/02 04:34:48;;;;;;;32.17;10.80;;;2.60;99.90;;;;;;4954938;29;20098;-80
2023/03/02 04:37:14;;;;;;;39.80;12.07;;;2.60;99.90;;;;;;4955486;29;20138;-81
2023/03/02 04:39:41;;;;;;;43.00;12.93;;;2.60;99.90;;;;;;4954964;29;20495;-80
2023/03/02 04:42:06;;;;;;;;;;;2.60;99.90;;;;;;4956223;29;20630;-80
2023/03/02 04:44:32;;;;;;;32.40;11.55;;;2.50;99.90;;;;;;4955402;29;19923;-81
2023/03/02 04:46:59;;;;;;;34.83;12.50;;;2.60;99.90;;;;;;4955047;29;20202;-81
2023/03/02 04:49:24;;;;;;;32.45;12.38;;;2.50;99.90;;;;;;4955403;29;20043;-80
2023/03/02 04:51:50;;;;;;;38.13;12.77;;;2.80;99.90;;;;;;4954944;29;20059;-80
2023/03/02 04:54:24;;;;;;;39.78;11.98;;;2.50;99.90;;;;;;4954803;29;20047;-80
2023/03/02 04:56:51;;;;;;;49.72;13.65;;;2.50;99.90;;;;;;4955229;29;20062;-80
2023/03/02 04:59:19;;;;;;;45.13;14.35;;;2.50;99.90;;;;;;4939496;29;20055;-80
2023/03/02 05:01:45;;;;;;;43.88;14.85;;;2.50;99.90;;;;;;4955174;29;20473;-80
2023/03/02 05:04:12;;;;;;;48.75;14.68;;;2.40;99.90;;;;;;4955206;29;20130;-80
2023/03/02 05:06:38;;;;;;;42.33;12.85;;;2.40;99.90;;;;;;4954520;29;20094;-80
2023/03/02 05:09:04;;;;;;;41.00;14.07;;;2.40;99.90;;;;;;4954211;29;20500;-80
2023/03/02 05:11:31;;;;;;;45.58;13.60;;;2.40;99.90;;;;;;4956045;28;20126;-81
2023/03/02 05:13:59;;;;;;;51.72;15.27;;;2.40;99.90;;;;;;4955301;29;20047;-81
2023/03/02 05:16:27;;;;;;;53.53;15.00;;;2.40;99.90;;;;;;4938907;29;20102;-80
2023/03/02 05:18:53;;;;;;;46.85;12.95;;;2.40;99.90;;;;;;4954594;29;20103;-81
2023/03/02 05:21:19;;;;;;;78.72;16.58;;;2.30;99.90;;;;;;4956149;28;20405;-80
2023/03/02 05:23:45;;;;;;;46.80;15.88;;;2.30;99.90;;;;;;4953768;29;20047;-80
2023/03/02 05:26:11;;;;;;;41.78;12.48;;;2.30;99.90;;;;;;4954707;29;20054;-80
2023/03/02 05:28:37;;;;;;;48.78;13.20;;;2.30;99.90;;;;;;4954654;29;20063;-80
2023/03/02 05:31:03;;;;;;;44.72;13.05;;;2.40;99.90;;;;;;4956034;28;20055;-80
2023/03/02 05:33:29;;;;;;;38.63;13.18;;;2.40;99.90;;;;;;4954640;29;20508;-80
2023/03/02 05:35:55;;;;;;;46.60;13.68;;;2.30;99.90;;;;;;4954299;29;20051;-80
2023/03/02 05:38:20;;;;;;;41.88;13.32;;;2.30;99.90;;;;;;4953499;29;20642;-81
2023/03/02 05:40:47;;;;;;;45.58;13.70;;;2.30;99.90;;;;;;4954457;28;20090;-80
2023/03/02 05:43:16;;;;;;;85.15;15.95;;;2.60;99.90;;;;;;4955518;28;20043;-80
2023/03/02 05:45:42;;;;;;;42.60;14.00;;;2.30;99.90;;;;;;4954270;29;20047;-80
2023/03/02 05:48:09;;;;;;;47.22;14.13;;;2.30;99.90;;;;;;4938633;29;20047;-80
2023/03/02 05:50:34;;;;;;;41.55;14.07;;;2.30;99.90;;;;;;4955091;28;20043;-81
2023/03/02 05:53:01;;;;;;;48.13;14.75;;;2.30;99.90;;;;;;4953470;29;20066;-80
2023/03/02 05:55:27;;;;;;;44.95;14.18;;;2.30;99.90;;;;;;4954120;29;20488;-80
2023/03/02 05:57:53;;;;;;;50.22;15.05;;;2.30;99.90;;;;;;4953823;29;20130;-81
2023/03/02 06:00:19;;;;;;;47.10;14.57;;;2.30;99.90;;;;;;4955357;28;20134;-80
2023/03/02 06:02:45;;;;;;;44.47;15.52;;;2.30;99.90;;;;;;4953657;29;20187;-80
2023/03/02 06:05:15;;;;;;;48.67;16.30;;;2.30;99.90;;;;;;4953583;29;20082;-80
2023/03/02 06:07:41;;;;;;;61.45;15.10;;;2.30;99.90;;;;;;4954241;28;20053;-81
2023/03/02 06:10:08;;;;;;;44.90;14.00;;;2.30;99.90;;;;;;4953832;29;20129;-80
2023/03/02 06:12:34;;;;;;;54.38;13.55;;;2.30;99.90;;;;;;4954210;29;20476;-80
2023/03/02 06:15:00;;;;;;;51.47;14.10;;;2.20;99.90;;;;;;4953623;29;20087;-81
2023/03/02 06:17:26;;;;;;;49.72;14.88;;;2.20;99.90;;;;;;4954401;29;20050;-80
2023/03/02 06:19:52;;;;;;;43.67;14.45;;;2.20;99.90;;;;;;4937037;29;20047;-80
2023/03/02 06:22:18;;;;;;;43.78;13.10;;;2.10;99.90;;;;;;4953027;29;20446;-80
2023/03/02 06:24:43;;;;;;;53.33;14.77;;;2.10;99.90;;;;;;4953190;29;20051;-80
2023/03/02 06:27:11;;;;;;;39.38;13.50;;;2.10;99.90;;;;;;4954854;29;20109;-80
2023/03/02 06:29:36;;;;;;;39.08;12.38;;;2.50;99.90;;;;;;4954823;29;20051;-80
2023/03/02 06:32:02;;;;;;;43.00;14.23;;;2.10;99.90;;;;;;4954475;28;20053;-80
2023/03/02 06:34:28;;;;;;;50.13;15.27;;;2.10;99.90;;;;;;4953390;29;20477;-80
2023/03/02 06:36:54;;;;;;;51.53;13.07;;;2.20;99.90;;;;;;4953217;29;20494;-80
2023/03/02 06:39:20;;;;;;;42.35;12.95;;;2.20;99.90;;;;;;4953676;29;20115;-80
2023/03/02 06:41:46;;;;;;;43.83;12.93;;;2.40;99.90;;;;;;4953331;29;20448;-80
2023/03/02 06:44:14;;;;;;;46.38;12.98;;;2.30;99.90;;;;;;4953646;29;20138;-80
2023/03/02 06:46:40;;;;;;;45.00;14.02;;;2.10;99.90;;;;;;4937258;29;20058;-82
2023/03/02 06:49:07;;;;;;;37.47;12.48;;;2.10;99.90;;;;;;4953107;29;20051;-81
2023/03/02 06:51:34;;;;;;;39.63;12.07;;;2.10;99.90;;;;;;4952630;28;20048;-80
2023/03/02 06:54:00;;;;;;;34.90;12.80;;;2.10;99.90;;;;;;4952812;28;20218;-80
2023/03/02 06:56:26;;;;;;;33.83;11.18;;;2.10;99.90;;;;;;4953339;29;20496;-81
2023/03/02 06:58:52;;;;;;;;;;;2.10;99.90;;;;;;4953090;29;20118;-80
2023/03/02 07:01:18;;;;;;;29.02;10.32;;;2.10;99.90;;;;;;4953393;29;20021;-81
2023/03/02 07:03:44;;;;;;;34.53;13.00;;;2.00;99.90;;;;;;4953401;29;20449;-82
2023/03/02 07:06:11;;;;;;;33.10;11.63;;;2.10;99.90;;;;;;4937139;29;20051;-81
2023/03/02 07:08:37;;;;;;;47.10;11.68;;;2.20;99.90;;;;;;4952220;29;20450;-81
2023/03/02 07:11:05;;;;;;;36.05;12.23;;;2.10;99.90;;;;;;4952707;29;20050;-81
2023/03/02 07:13:31;;;;;;;32.25;12.02;;;2.10;99.90;;;;;;4953069;29;20054;-80
2023/03/02 07:15:56;;;;;;;31.27;12.70;;;2.10;99.90;;;;;;4952394;29;20130;-80
2023/03/02 07:18:22;;;;;;;36.50;12.43;;;2.10;99.90;;;;;;4952741;29;20189;-80
2023/03/02 07:20:48;;;;;;;36.03;11.93;;;2.10;99.90;;;;;;4952627;29;20074;-80
2023/03/02 07:23:13;;;;;;;30.35;12.15;;;2.10;99.90;;;;;;4953106;28;20082;-77
2023/03/02 07:25:39;;;;;;;29.63;10.63;;;2.10;99.90;;;;;;4953770;29;20055;-74
2023/03/02 07:28:05;;;;;;;51.97;14.38;;;2.20;99.90;;;;;;4952394;29;20119;-81
2023/03/02 07:30:31;;;;;;;35.40;11.68;;;2.30;99.90;;;;;;4952579;29;20043;-78
2023/03/02 07:32:56;;;;;;;33.75;11.23;;;2.30;99.90;;;;;;4953015;28;20061;-79
2023/03/02 07:35:22;;;;;;;38.67;12.32;;;2.40;99.90;;;;;;4952662;29;20133;-80
2023/03/02 07:37:48;;;;;;;39.20;12.07;;;2.40;99.90;;;;;;4952616;29;20492;-81
2023/03/02 07:40:13;;;;;;;32.28;12.10;;;2.40;99.90;;;;;;4953415;29;20102;-79
2023/03/02 07:42:39;;;;;;;34.00;10.82;;;2.40;99.90;;;;;;4952528;29;20057;-77
2023/03/02 07:45:05;;;;;;;33.72;12.00;;;2.60;99.90;;;;;;4952316;29;20485;-79
2023/03/02 07:47:31;;;;;;;31.60;11.07;;;2.40;99.90;;;;;;4953207;28;20043;-79
2023/03/02 07:49:57;;;;;;;29.13;10.82;;;2.40;99.90;;;;;;4953047;29;20075;-79
2023/03/02 07:52:23;;;;;;;33.75;11.82;;;2.50;99.90;;;;;;4952921;29;20062;-79
2023/03/02 07:54:49;;;;;;;30.67;10.90;;;2.50;99.90;;;;;;4953015;29;20059;-81
2023/03/02 07:57:15;;;;;;;38.65;12.50;;;2.50;99.90;;;;;;4953223;29;20047;-79
2023/03/02 07:59:42;;;;;;;32.97;11.32;;;2.50;99.90;;;;;;4952165;29;20577;-78
2023/03/02 08:02:13;;;;;;;30.88;11.57;;;2.60;99.90;;;;;;4951885;28;20138;-79
2023/03/02 08:04:39;;;;;;;30.50;11.85;;;2.60;99.90;;;;;;4955041;29;20058;-79
2023/03/02 08:07:05;;;;;;;30.60;11.30;;;2.60;99.90;;;;;;4956986;28;20131;-78
2023/03/02 08:09:31;;;;;;;41.20;12.55;;;2.60;99.90;;;;;;4956270;29;20055;-80
2023/03/02 08:11:57;;;;;;;27.08;10.25;;;2.70;99.90;;;;;;4956954;29;20054;-79
2023/03/02 08:14:22;;;;;;;35.05;12.25;;;2.70;99.90;;;;;;4957182;28;20044;-79
2023/03/02 08:16:48;;;;;;;34.33;11.82;;;2.70;99.90;;;;;;4957023;28;20051;-79
2023/03/02 08:19:14;;;;;;;35.20;11.57;;;2.70;99.90;;;;;;4956648;28;20051;-79
2023/03/02 08:21:40;;;;;;;32.88;11.93;;;2.80;99.90;;;;;;4956696;28;20044;-80
2023/03/02 08:24:06;;;;;;;26.90;10.02;;;2.90;99.90;;;;;;4954935;29;20054;-80
2023/03/02 08:26:32;;;;;;;23.65;9.75;;;2.80;99.90;;;;;;4956878;29;20066;-80
2023/03/02 08:28:58;;;;;;;25.52;9.55;;;2.80;99.90;;;;;;4956846;28;20388;-80
2023/03/02 08:31:24;;;;;;;35.38;9.95;;;2.70;99.90;;;;;;4956795;28;20043;-79
2023/03/02 08:33:50;;;;;;;27.42;10.52;;;2.70;99.90;;;;;;4956324;28;20058;-81
2023/03/02 08:36:18;;;;;;;28.90;10.20;;;2.70;99.90;;;;;;4939431;29;20058;-81
2023/03/02 08:38:45;;;;;;;24.70;9.23;;;2.60;99.90;;;;;;4956121;29;20053;-79
2023/03/02 08:41:14;;;;;;;26.77;9.65;;;2.70;99.90;;;;;;4955017;29;20050;-80
2023/03/02 08:43:41;;;;;;;22.10;8.52;;;2.60;99.90;;;;;;4956533;28;20477;-80
2023/03/02 08:46:07;;;;;;;29.15;10.38;;;2.70;99.90;;;;;;4955204;29;20046;-80
2023/03/02 08:48:33;;;;;;;;;;;2.70;99.90;;;;;;4956738;28;20047;-79
2023/03/02 08:51:03;;;;;;;25.45;9.20;;;2.80;99.90;;;;;;4954928;28;19928;-77
2023/03/02 08:53:32;;;;;;;26.00;8.82;;;2.80;99.90;;;;;;4955160;28;20065;-79
2023/03/02 08:55:57;;;;;;;27.63;10.65;;;2.80;99.90;;;;;;4955187;28;20043;-80
2023/03/02 08:58:23;;;;;;;27.02;10.15;;;2.90;99.90;;;;;;4953885;29;20047;-78
2023/03/02 09:00:49;;;;;;;27.98;10.68;;;2.90;99.90;;;;;;4955342;29;20516;-78
2023/03/02 09:03:15;;;;;;;30.38;10.50;;;3.00;99.90;;;;;;4955412;29;20087;-79
2023/03/02 09:05:41;;;;;;;;;;;3.10;99.90;;;;;;4955651;28;20043;-78
2023/03/02 09:08:07;;;;;;;28.20;11.02;;;3.40;99.90;;;;;;4953998;29;19929;-79
2023/03/02 09:10:33;;;;;;;26.52;9.32;;;3.30;99.90;;;;;;4954525;29;20405;-79
2023/03/02 09:12:59;;;;;;;33.15;11.68;;;3.20;99.90;;;;;;4954357;29;20043;-82
2023/03/02 09:15:25;;;;;;;29.13;10.90;;;3.30;99.90;;;;;;4954297;28;20047;-79
2023/03/02 09:17:51;;;;;;;27.63;9.85;;;3.30;99.90;;;;;;4954400;29;20047;-79
2023/03/02 09:20:17;;;;;;;26.88;10.68;;;3.40;99.90;;;;;;4938039;29;20059;-79
2023/03/02 09:22:47;;;;;;;28.70;9.98;;;3.50;99.90;;;;;;4954855;29;20058;-78
2023/03/02 09:25:14;;;;;;;25.55;9.52;;;3.30;99.90;;;;;;4953400;29;20054;-78
2023/03/02 09:27:40;;;;;;;24.17;9.68;;;3.30;99.90;;;;;;4953985;29;20460;-79
2023/03/02 09:30:07;;;;;;;27.50;8.68;;;3.30;99.90;;;;;;4954888;28;20054;-79
2023/03/02 09:32:34;;;;;;;30.33;10.65;;;3.30;99.90;;;;;;4954410;29;20061;-79
2023/03/02 09:34:59;;;;;;;;;;;3.30;99.90;;;;;;4954625;29;20146;-77
2023/03/02 09:37:27;;;;;;;24.98;9.20;;;3.50;99.90;;;;;;4954444;28;20009;-78
2023/03/02 09:39:53;;;;;;;27.55;10.20;;;3.30;99.90;;;;;;4953815;29;20374;-80
2023/03/02 09:42:55;;;;;;;25.65;9.93;;;3.40;99.90;;;;;;4954929;28;20090;-80
2023/03/02 09:45:37;;;;;;;26.83;10.43;;;3.50;99.90;;;;;;4952898;29;20504;-85
2023/03/02 09:48:21;;;;;;;22.48;9.88;;;3.50;99.90;;;;;;4954186;29;20051;-80
2023/03/02 09:50:59;;;;;;;23.00;9.80;;;3.60;99.90;;;;;;4953910;29;20055;-79
2023/03/02 09:53:54;;;;;;;27.98;10.40;;;3.60;99.90;;;;;;4952794;29;20051;-78
2023/03/02 09:56:20;;;;;;;21.10;8.82;;;3.60;99.90;;;;;;4949737;29;20113;-78
2023/03/02 09:58:57;;;;;;;21.27;8.82;;;3.60;99.90;;;;;;4955072;28;20058;-78
2023/03/02 10:01:43;;;;;;;26.73;9.93;;;3.70;99.90;;;;;;4954586;28;20600;-78
2023/03/02 10:04:17;;;;;;;25.23;9.27;;;3.70;99.90;;;;;;4954503;28;20401;-79
2023/03/02 10:06:44;;;;;;;23.33;9.35;;;3.70;99.90;;;;;;4953957;28;20097;-78
2023/03/02 10:09:10;;;;;;;23.10;9.13;;;3.70;99.90;;;;;;4953298;28;20055;-78
2023/03/02 10:11:46;;;;;;;22.10;9.05;;;3.80;99.90;;;;;;4954853;28;20062;-78
2023/03/02 10:14:26;;;;;;;24.52;9.40;;;3.90;99.90;;;;;;4953249;29;20054;-78
2023/03/02 10:17:04;;;;;;;24.63;10.00;;;3.90;99.90;;;;;;4953895;29;20055;-78
2023/03/02 10:19:41;;;;;;;24.10;9.77;;;3.90;99.90;;;;;;4953231;29;20055;-79
2023/03/02 10:22:24;;;;;;;25.23;8.95;;;3.80;99.90;;;;;;4953683;28;20604;-81
2023/03/02 10:25:23;;;;;;;21.52;9.02;;;3.80;99.90;;;;;;4953099;29;20105;-79
2023/03/02 10:27:52;;;;;;;25.05;9.38;;;3.80;99.90;;;;;;4951905;29;20570;-79
2023/03/02 10:30:41;;;;;;;24.02;9.60;;;3.90;99.90;;;;;;4954133;28;20496;-79
2023/03/02 10:33:15;;;;;;;21.40;9.10;;;4.10;99.90;;;;;;4952706;29;20083;-84
2023/03/02 10:35:47;;;;;;;23.92;9.55;;;4.70;99.90;;;;;;4953077;29;20055;-82
2023/03/02 10:38:16;;;;;;;24.05;8.98;;;4.60;99.90;;;;;;4952025;29;20059;-83
2023/03/02 10:40:48;;;;;;;25.60;9.82;;;4.90;99.90;;;;;;4954300;28;20045;-78
2023/03/02 10:43:25;;;;;;;22.80;9.50;;;4.80;99.90;;;;;;4952913;29;20043;-81
2023/03/02 10:45:59;;;;;;;26.83;10.48;;;5.00;99.90;;;;;;4954452;28;20047;-78
2023/03/02 10:48:24;;;;;;;20.73;9.20;;;5.10;99.90;;;;;;4952742;29;20055;-78
2023/03/02 10:50:53;;;;;;;24.73;9.90;;;5.00;99.90;;;;;;4952744;29;20058;-85
2023/03/02 10:53:19;;;;;;;25.35;9.85;;;5.00;99.90;;;;;;4951227;29;20105;-78
2023/03/02 10:55:51;;;;;;;23.92;8.85;;;5.10;99.90;;;;;;4952529;29;20090;-78
2023/03/02 10:58:32;;;;;;;25.05;9.80;;;5.10;99.90;;;;;;4953317;28;20612;-79
2023/03/02 11:01:04;;;;;;;23.90;9.50;;;5.10;99.90;;;;;;4937106;29;20133;-79
2023/03/02 11:03:31;;;;;;;24.35;9.70;;;5.20;99.90;;;;;;4953269;28;20059;-79
2023/03/02 11:06:11;;;;;;;21.52;9.70;;;5.10;99.90;;;;;;4952950;28;20054;-78
2023/03/02 11:08:36;;;;;;;21.92;9.23;;;5.10;99.90;;;;;;4952758;28;20086;-85
2023/03/02 11:11:03;;;;;;;20.55;8.73;;;5.10;99.90;;;;;;4952703;29;20087;-78
2023/03/02 11:13:31;;;;;;;21.75;9.60;;;5.10;99.90;;;;;;4952095;29;20097;-79
2023/03/02 11:16:00;;;;;;;22.58;9.98;;;5.00;99.90;;;;;;4952479;29;20113;-78
2023/03/02 11:18:36;;;;;;;22.27;9.63;;;5.00;99.90;;;;;;4953046;28;20047;-80
2023/03/02 11:21:20;;;;;;;22.90;10.23;;;5.00;99.90;;;;;;4953667;28;20473;-80
2023/03/02 11:24:05;;;;;;;22.08;9.45;;;5.00;99.90;;;;;;4952221;28;20283;-80
2023/03/02 11:26:38;;;;;;;23.17;8.95;;;5.00;99.90;;;;;;4952851;28;20043;-79
2023/03/02 11:29:15;;;;;;;22.40;8.40;;;5.00;99.90;;;;;;4952187;29;20421;-80
2023/03/02 11:31:48;;;;;;;22.20;9.15;;;5.10;99.90;;;;;;4952079;29;20055;-80
2023/03/02 11:34:26;;;;;;;21.70;8.90;;;5.20;99.90;;;;;;4951810;29;20090;-81
2023/03/02 11:37:10;;;;;;;20.55;9.23;;;5.30;99.90;;;;;;4952275;28;20054;-79
2023/03/02 11:39:48;;;;;;;24.23;9.88;;;5.40;99.90;;;;;;4951310;29;20122;-79
2023/03/02 11:42:20;;;;;;;22.70;9.45;;;5.50;99.90;;;;;;4953166;28;20043;-82
2023/03/02 11:44:47;;;;;;;21.63;9.57;;;5.70;99.90;;;;;;4953395;28;20125;-78
2023/03/02 11:47:13;;;;;;;22.58;9.25;;;5.80;99.90;;;;;;4952030;29;20057;-78
2023/03/02 11:50:06;;;;;;;24.83;10.27;;;6.20;99.90;;;;;;4951699;29;20050;-78
2023/03/02 11:52:37;;;;;;;24.98;10.40;;;6.00;99.90;;;;;;4948934;28;20116;-80
2023/03/02 11:55:22;;;;;;;23.83;10.10;;;6.00;99.90;;;;;;4952174;28;20055;-81
2023/03/02 11:58:01;;;;;;;22.98;9.45;;;6.00;99.90;;;;;;4952178;29;20095;-80
2023/03/02 12:00:32;;;;;;;21.13;8.93;;;6.00;99.90;;;;;;4952115;29;20051;-83
2023/03/02 12:03:29;;;;;;;21.60;9.07;;;6.10;99.90;;;;;;4952862;28;20057;-81
2023/03/02 12:06:03;;;;;;;26.33;10.57;;;6.50;99.90;;;;;;4951324;28;20620;-80
2023/03/02 12:08:31;;;;;;;26.27;11.05;;;6.80;99.90;;;;;;4951884;28;20055;-79
2023/03/02 12:11:15;;;;;;;25.27;9.88;;;6.90;99.90;;;;;;4952458;29;20051;-80
2023/03/02 12:13:42;;;;;;;23.40;9.80;;;7.00;99.90;;;;;;4953097;28;20075;-80
2023/03/02 12:16:32;;;;;;;25.25;9.95;;;7.10;99.90;;;;;;4936213;29;20688;-78
2023/03/02 12:18:58;;;;;;;22.52;10.18;;;7.20;99.90;;;;;;4952392;28;20051;-78
2023/03/02 12:21:24;;;;;;;21.00;9.02;;;7.30;99.90;;;;;;4951496;29;20055;-77
2023/03/02 12:23:50;;;;;;;21.45;8.77;;;7.30;99.90;;;;;;4951933;28;20130;-78
2023/03/02 12:26:18;;;;;;;22.58;9.80;;;7.40;99.90;;;;;;4952608;28;20134;-79
2023/03/02 12:29:08;;;;;;;20.40;9.32;;;7.70;99.90;;;;;;4951707;28;20062;-79
2023/03/02 12:31:54;;;;;;;23.15;10.00;;;7.90;99.90;;;;;;4952717;28;20122;-78
2023/03/02 12:34:22;;;;;;;21.30;9.50;;;7.90;99.90;;;;;;4951382;29;20130;-82
2023/03/02 12:36:48;;;;;;;20.83;8.85;;;7.90;99.90;;;;;;4952826;28;20054;-79
2023/03/02 12:39:44;;;;;;;19.63;9.13;;;7.80;99.90;;;;;;4951678;28;20069;-79
2023/03/02 12:42:38;;;;;;;19.15;8.40;;;7.70;99.90;;;;;;4952548;28;20047;-78
2023/03/02 12:45:19;;;;;;;19.65;9.05;;;7.60;99.90;;;;;;4952640;28;20378;-77
2023/03/02 12:47:50;;;;;;;20.38;9.50;;;7.80;99.90;;;;;;4951198;29;20107;-78
2023/03/02 12:50:23;;;;;;;23.65;9.82;;;8.00;99.90;;;;;;4954900;28;20054;-78
2023/03/02 12:53:04;;;;;;;22.30;8.88;;;8.40;99.90;;;;;;4955732;28;20067;-79